createdAt,value
2023-12-11T00:02:14.448Z,1.8
2023-12-11T00:22:39.093Z,2.3
2023-12-11T00:32:39.096Z,1.9
2023-12-11T00:42:14.442Z,1.5
2023-12-11T00:52:39.104Z,1.8
2023-12-11T01:02:39.104Z,1.8
2023-12-11T01:12:14.447Z,1.9
2023-12-11T01:22:39.119Z,1.9
2023-12-11T01:32:14.458Z,1.9
2023-12-11T01:42:39.148Z,2.3
2023-12-11T01:52:14.483Z,1.8
2023-12-11T02:12:14.458Z,2.3
2023-12-11T02:22:14.512Z,1.9
2023-12-11T02:32:14.472Z,1.4
2023-12-11T02:42:14.618Z,2.1
2023-12-11T02:53:03.832Z,1.9
2023-12-11T03:02:14.495Z,1.2
2023-12-11T03:12:14.484Z,1.9
2023-12-11T03:22:14.527Z,1.2
2023-12-11T03:32:14.501Z,1.2
2023-12-11T03:42:39.185Z,1.9
2023-12-11T03:52:14.626Z,1.7
2023-12-11T04:02:39.211Z,1.4
2023-12-11T04:12:14.515Z,1.6
2023-12-11T04:22:14.571Z,2.2
2023-12-11T04:33:04.019Z,1.1
2023-12-11T04:42:14.523Z,1.7
2023-12-11T04:52:14.566Z,1.6
2023-12-11T05:12:14.524Z,1.2
2023-12-11T05:22:14.556Z,1.6
2023-12-11T05:32:14.538Z,1.5
2023-12-11T05:42:14.546Z,1.8
2023-12-11T05:52:39.215Z,1.9
2023-12-11T06:02:14.551Z,1.9
2023-12-11T06:12:14.543Z,1.4
2023-12-11T06:32:39.250Z,1.4
2023-12-11T06:42:39.478Z,1.6
2023-12-11T06:52:14.607Z,1.6
2023-12-11T07:02:14.784Z,1.3
2023-12-11T07:22:14.636Z,1.7
2023-12-11T07:42:14.586Z,1.8
2023-12-11T07:52:14.670Z,1.1
2023-12-11T08:02:39.265Z,1.3
2023-12-11T08:22:39.266Z,1.2
2023-12-11T08:32:14.635Z,1.1
2023-12-11T08:42:14.610Z,1.5
2023-12-11T08:52:39.285Z,1.7
2023-12-11T09:02:14.623Z,1.3
2023-12-11T09:12:23.444Z,1.0
2023-12-11T09:22:39.295Z,1.5
2023-12-11T09:32:14.631Z,1.3
2023-12-11T09:42:39.398Z,1.2
2023-12-11T10:02:14.743Z,1.1
2023-12-11T10:12:14.647Z,0.8
2023-12-11T10:22:14.696Z,1.0
2023-12-11T10:32:39.337Z,1.1
2023-12-11T10:42:14.932Z,1.5
2023-12-11T11:12:14.655Z,1.2
2023-12-11T11:32:14.666Z,1.5
2023-12-11T11:52:14.755Z,1.3
2023-12-11T12:02:39.345Z,0.9
2023-12-11T12:12:14.690Z,1.6
2023-12-11T12:22:14.884Z,2.6
2023-12-11T12:42:39.437Z,1.2
2023-12-11T12:52:14.721Z,1.2
2023-12-11T13:02:14.701Z,0.5
2023-12-11T13:12:14.708Z,0.6
2023-12-11T13:22:39.379Z,1.2
2023-12-11T13:32:14.726Z,1.1
2023-12-11T13:42:39.394Z,1.1
2023-12-11T13:52:14.736Z,0.7
2023-12-11T14:03:00.011Z,0.9
2023-12-11T14:12:14.733Z,0.9
2023-12-11T14:22:14.756Z,0.6
2023-12-11T14:32:39.477Z,0.6
2023-12-11T14:42:14.732Z,0.9
2023-12-11T14:52:14.844Z,1.7
2023-12-11T15:12:14.753Z,2.0
2023-12-11T15:22:39.572Z,1.4
2023-12-11T15:32:14.754Z,2.1
2023-12-11T15:52:39.431Z,1.5
2023-12-11T16:02:14.792Z,1.5
2023-12-11T16:22:14.809Z,1.6
2023-12-11T16:32:14.773Z,1.9
2023-12-11T16:42:14.776Z,1.7
2023-12-11T16:52:14.802Z,1.3
2023-12-11T17:12:14.790Z,1.7
2023-12-11T17:22:14.820Z,1.6
2023-12-11T17:32:14.855Z,2.0
2023-12-11T17:42:39.492Z,1.8
2023-12-11T17:52:14.858Z,1.2
2023-12-11T18:02:14.806Z,1.5
2023-12-11T18:32:39.565Z,1.3
2023-12-11T18:42:14.819Z,1.9
2023-12-11T18:52:39.489Z,1.7
2023-12-11T19:02:15.015Z,1.4
2023-12-11T19:12:39.516Z,1.4
2023-12-11T19:22:14.881Z,1.7
2023-12-11T19:32:14.983Z,1.4
2023-12-11T19:42:14.945Z,2.1
2023-12-11T19:52:39.551Z,2.4
2023-12-11T20:02:14.897Z,2.6
2023-12-11T20:12:15.185Z,2.5
2023-12-11T20:22:14.994Z,2.2
2023-12-11T20:32:14.977Z,3.8
2023-12-11T20:42:39.651Z,2.8
2023-12-11T21:02:14.962Z,2.3
2023-12-11T21:12:39.657Z,1.6
2023-12-11T21:22:39.644Z,2.1
2023-12-11T21:42:14.975Z,2.7
2023-12-11T21:52:15.039Z,2.4
2023-12-11T22:02:39.685Z,2.2
2023-12-11T22:12:14.984Z,2.3
2023-12-11T22:32:14.992Z,2.6
2023-12-11T22:52:15.026Z,2.8
2023-12-11T23:02:15.030Z,2.7
2023-12-11T23:22:15.112Z,5.2
2023-12-11T23:32:14.916Z,5.2
2023-12-11T23:42:15.022Z,5.3
